Time;durP1;ratioP1;P1;durP2;ratioP2;P2;SDS_P1;SDS_P2;PMS_P1;PMS_P2;Temp;Humidity;BMP_temperature;BMP_pressure;BME280_temperature;BME280_humidity;BME280_pressure;Samples;Min_cycle;Max_cycle;Signal;HPM_P1;HPM_P2
2022/04/07 00:01:43;;;;;;;3.42;2.20;;;;;;;10.32;96.28;99117.56;5031942;28;20045;-48
2022/04/07 00:04:11;;;;;;;4.25;2.13;;;;;;;10.26;96.21;99125.03;5033114;28;20049;-46
2022/04/07 00:06:39;;;;;;;4.88;2.08;;;;;;;10.33;95.82;99114.53;5035088;28;20042;-48
2022/04/07 00:09:06;;;;;;;5.10;2.13;;;;;;;10.23;95.49;99112.84;5039828;28;20056;-50
2022/04/07 00:11:34;;;;;;;5.68;1.73;;;;;;;10.26;95.70;99107.91;5032976;28;20072;-51
2022/04/07 00:14:02;;;;;;;5.32;1.85;;;;;;;10.29;95.41;99099.13;5015314;28;20499;-51
2022/04/07 00:16:29;;;;;;;5.25;2.40;;;;;;;10.30;95.27;99098.03;5033172;28;20407;-48
2022/04/07 00:18:57;;;;;;;6.70;2.20;;;;;;;10.26;94.89;99103.25;5048865;28;20449;-45
2022/04/07 00:21:34;;;;;;;5.05;1.80;;;;;;;10.17;95.51;99089.59;5053148;28;20049;-48
2022/04/07 00:24:03;;;;;;;8.20;2.60;;;;;;;10.16;95.37;99085.25;5052820;28;20048;-51
2022/04/07 00:26:32;;;;;;;6.45;2.35;;;;;;;10.14;94.67;99071.13;5049219;28;20045;-50
2022/04/07 00:29:00;;;;;;;6.15;1.90;;;;;;;10.12;94.64;99076.06;5033902;28;20076;-50
2022/04/07 00:31:27;;;;;;;6.93;2.00;;;;;;;10.07;94.95;99076.19;5032678;28;20045;-49
2022/04/07 00:33:55;;;;;;;7.28;2.67;;;;;;;10.07;94.96;99078.91;5033065;28;20067;-47
2022/04/07 00:36:23;;;;;;;6.20;2.35;;;;;;;10.10;95.21;99059.28;5035990;28;20041;-47
2022/04/07 00:38:50;;;;;;;6.65;2.20;;;;;;;10.17;94.73;99059.66;5036039;28;20037;-49
2022/04/07 00:41:18;;;;;;;7.85;2.38;;;;;;;10.15;94.57;99064.59;5036660;28;20051;-47
2022/04/07 00:43:50;;;;;;;4.75;1.90;;;;;;;10.11;94.96;99047.25;5036133;28;20141;-49
2022/04/07 00:46:19;;;;;;;4.35;1.98;;;;;;;10.13;95.12;99039.59;5035453;28;20053;-49
2022/04/07 00:48:47;;;;;;;7.22;2.60;;;;;;;10.09;94.87;99044.03;5036368;28;20045;-48
2022/04/07 00:51:14;;;;;;;4.95;2.35;;;;;;;10.09;95.31;99033.16;5036675;28;20048;-51
2022/04/07 00:53:44;;;;;;;6.90;2.58;;;;;;;10.09;95.58;99016.84;5036242;28;20408;-52
2022/04/07 00:56:12;;;;;;;6.57;2.20;;;;;;;10.08;95.29;99025.28;5018855;28;20072;-50
2022/04/07 00:58:40;;;;;;;5.32;2.00;;;;;;;10.07;95.47;99018.25;5050848;28;20519;-49
2022/04/07 01:01:08;;;;;;;6.93;2.22;;;;;;;10.04;95.59;99011.50;5036491;28;20495;-46
2022/04/07 01:03:37;;;;;;;7.22;2.30;;;;;;;9.99;96.07;99006.19;5035317;28;20133;-47
2022/04/07 01:06:04;;;;;;;7.90;2.35;;;;;;;10.00;95.77;99003.16;5035109;28;20095;-46
2022/04/07 01:08:32;;;;;;;6.10;2.45;;;;;;;10.07;96.25;98997.28;5036043;28;20042;-48
2022/04/07 01:11:00;;;;;;;3.60;1.67;;;;;;;10.23;96.31;98993.06;5036395;28;20538;-47
2022/04/07 01:13:52;;;;;;;8.57;2.78;;;;;;;10.17;95.53;98997.06;5035751;28;20518;-48
2022/04/07 01:16:21;;;;;;;7.00;2.33;;;;;;;10.20;94.83;98985.53;5035659;28;20038;-49
2022/04/07 01:18:49;;;;;;;5.85;2.50;;;;;;;10.13;95.89;98989.81;5034515;28;20515;-51
2022/04/07 01:21:17;;;;;;;9.20;2.53;;;;;;;10.08;96.16;98984.47;5036130;28;20068;-47
2022/04/07 01:24:02;;;;;;;7.82;2.15;;;;;;;10.22;95.68;98977.03;5034753;28;20450;-47
2022/04/07 01:26:41;;;;;;;7.43;2.38;;;;;;;10.21;96.22;98967.28;5035678;28;20042;-49
2022/04/07 01:29:16;;;;;;;3.85;1.83;;;;;;;10.18;95.57;98966.00;5035057;28;20048;-49
2022/04/07 01:31:43;;;;;;;6.72;2.30;;;;;;;10.11;96.35;98965.63;5035806;28;20484;-48
2022/04/07 01:34:16;;;;;;;5.38;1.67;;;;;;;10.08;96.58;98968.97;5035754;28;20038;-49
2022/04/07 01:36:49;;;;;;;6.43;2.58;;;;;;;10.07;96.58;98952.94;5034237;28;20096;-49
2022/04/07 01:39:21;;;;;;;6.80;2.25;;;;;;;10.02;96.51;98964.75;5036032;28;20411;-47
2022/04/07 01:41:49;;;;;;;7.45;2.50;;;;;;;10.04;96.65;98957.09;5035242;28;20097;-50
2022/04/07 01:44:18;;;;;;;7.88;2.70;;;;;;;10.02;96.77;98949.22;5035957;28;20049;-50
2022/04/07 01:46:47;;;;;;;7.80;2.72;;;;;;;9.96;96.96;98934.16;5035365;28;20049;-48
2022/04/07 01:49:15;;;;;;;8.20;2.60;;;;;;;10.14;95.33;98932.34;5036494;28;20061;-49
2022/04/07 01:51:43;;;;;;;10.45;2.40;;;;;;;10.08;95.57;98930.88;5053877;28;20495;-49
2022/04/07 01:54:12;;;;;;;6.90;2.40;;;;;;;10.06;95.45;98924.16;5037754;28;20052;-51
2022/04/07 01:56:43;;;;;;;6.18;2.22;;;;;;;10.06;95.23;98918.69;5044158;28;20084;-52
2022/04/07 01:59:12;;;;;;;7.85;2.40;;;;;;;9.99;95.08;98930.81;5043403;28;20041;-50
2022/04/07 02:01:40;;;;;;;10.40;2.75;;;;;;;9.98;95.11;98917.50;5054208;28;20041;-50
2022/04/07 02:04:07;;;;;;;6.60;2.25;;;;;;;10.03;94.79;98917.41;5055387;28;20416;-49
2022/04/07 02:06:35;;;;;;;6.53;2.10;;;;;;;10.00;94.86;98896.25;5054685;28;20514;-49
2022/04/07 02:09:02;;;;;;;6.13;2.20;;;;;;;10.05;94.68;98895.31;5051905;28;20033;-53
2022/04/07 02:11:32;;;;;;;7.95;2.50;;;;;;;10.08;94.51;98889.25;5033721;28;20088;-50
2022/04/07 02:14:00;;;;;;;7.90;2.47;;;;;;;10.11;93.90;98894.88;5035435;28;20435;-47
2022/04/07 02:16:29;;;;;;;7.72;2.22;;;;;;;10.11;93.60;98878.56;5044226;28;20048;-50
2022/04/07 02:18:57;;;;;;;7.10;2.35;;;;;;;10.07;93.88;98874.84;5054662;28;20419;-47
2022/04/07 02:21:24;;;;;;;8.18;2.40;;;;;;;10.23;93.75;98870.59;5037061;28;20044;-49
2022/04/07 02:23:53;;;;;;;10.07;2.63;;;;;;;10.38;92.80;98860.44;5054977;28;20049;-50
2022/04/07 02:26:21;;;;;;;8.90;2.78;;;;;;;10.22;92.93;98857.28;5053925;28;20132;-50
2022/04/07 02:28:48;;;;;;;7.95;2.58;;;;;;;10.15;93.82;98862.38;5050637;28;20476;-48
2022/04/07 02:31:16;;;;;;;10.85;2.35;;;;;;;10.13;93.57;98856.47;5042447;28;20067;-48
2022/04/07 02:33:45;;;;;;;6.05;2.33;;;;;;;10.07;94.01;98877.56;5053201;28;20041;-49
2022/04/07 02:36:17;;;;;;;9.80;2.75;;;;;;;10.04;94.58;98856.44;5044813;28;20058;-49
2022/04/07 02:38:45;;;;;;;12.63;2.50;;;;;;;10.05;94.08;98846.34;5048911;28;20045;-50
2022/04/07 02:41:13;;;;;;;8.88;2.85;;;;;;;10.11;93.79;98851.34;5054013;28;20047;-48
2022/04/07 02:43:40;;;;;;;7.43;2.40;;;;;;;10.09;93.91;98837.25;5054541;28;20506;-50
2022/04/07 02:46:08;;;;;;;8.77;2.60;;;;;;;10.05;93.94;98844.41;5052580;28;20083;-48
2022/04/07 02:48:36;;;;;;;12.48;3.10;;;;;;;10.08;93.69;98829.38;5050406;28;20764;-49
2022/04/07 02:51:03;;;;;;;6.75;2.22;;;;;;;10.20;93.56;98826.91;5034204;28;20053;-48
2022/04/07 02:53:31;;;;;;;9.55;2.85;;;;;;;10.08;93.01;98818.50;5034086;28;20420;-48
2022/04/07 02:55:59;;;;;;;9.25;2.38;;;;;;;10.01;92.96;98824.41;5037247;28;20067;-49
2022/04/07 02:58:27;;;;;;;8.88;2.70;;;;;;;10.01;93.40;98808.09;5033157;28;20500;-48
2022/04/07 03:00:54;;;;;;;12.15;3.05;;;;;;;10.19;91.72;98803.50;5035372;28;20439;-47
2022/04/07 03:03:22;;;;;;;8.77;2.67;;;;;;;10.12;92.38;98787.63;5034377;28;20396;-51
2022/04/07 03:05:50;;;;;;;7.50;2.25;;;;;;;10.10;92.92;98781.72;5033946;28;20041;-51
2022/04/07 03:08:17;;;;;;;8.32;2.60;;;;;;;10.14;92.01;98774.50;5037075;28;20475;-49
2022/04/07 03:10:45;;;;;;;8.85;2.88;;;;;;;10.28;91.13;98773.59;5053755;28;20049;-48
2022/04/07 03:13:13;;;;;;;12.27;3.00;;;;;;;10.23;90.76;98767.19;5036488;28;20057;-49
2022/04/07 03:15:40;;;;;;;6.80;2.35;;;;;;;10.26;90.60;98770.38;5034170;28;20068;-50
2022/04/07 03:18:08;;;;;;;7.28;2.53;;;;;;;10.35;90.38;98757.63;5042330;28;20046;-46
2022/04/07 03:20:36;;;;;;;9.43;2.78;;;;;;;10.21;90.61;98755.81;5053079;28;20076;-51
2022/04/07 03:23:03;;;;;;;9.70;3.17;;;;;;;10.18;90.63;98759.16;5053777;28;20049;-51
2022/04/07 03:25:31;;;;;;;10.40;3.00;;;;;;;10.23;91.19;98748.13;5053797;28;20044;-50
2022/04/07 03:27:58;;;;;;;9.02;2.75;;;;;;;10.14;90.72;98735.63;5050128;28;20041;-50
2022/04/07 03:30:26;;;;;;;9.70;3.22;;;;;;;10.19;91.15;98738.97;5050485;28;20076;-48
2022/04/07 03:32:54;;;;;;;11.65;2.92;;;;;;;10.19;90.33;98730.81;5052474;28;20048;-47
2022/04/07 03:35:21;;;;;;;9.27;2.85;;;;;;;10.17;90.09;98735.81;5053637;28;20037;-48
2022/04/07 03:37:49;;;;;;;8.32;2.58;;;;;;;10.15;90.17;98731.75;5053640;28;20051;-50
2022/04/07 03:40:17;;;;;;;6.63;2.55;;;;;;;10.23;90.16;98728.28;5046683;28;20037;-48
2022/04/07 03:42:45;;;;;;;11.25;3.13;;;;;;;10.19;89.23;98722.66;5033573;28;20136;-47
2022/04/07 03:45:12;;;;;;;9.65;2.92;;;;;;;10.14;89.33;98714.63;5042641;28;20052;-49
2022/04/07 03:47:40;;;;;;;12.75;3.10;;;;;;;10.19;89.30;98722.66;5053429;28;20049;-48
2022/04/07 03:50:08;;;;;;;9.90;2.60;;;;;;;10.27;89.48;98706.66;5038795;28;20049;-48
2022/04/07 03:52:36;;;;;;;10.45;2.78;;;;;;;10.23;89.41;98692.91;5033471;28;20129;-48
2022/04/07 03:55:05;;;;;;;3.28;1.80;;;;;;;10.22;89.88;98697.53;5033086;28;20048;-48
2022/04/07 03:57:33;;;;;;;10.68;3.40;;;;;;;10.17;88.97;98692.25;5032862;28;20042;-50
2022/04/07 04:00:00;;;;;;;13.15;2.80;;;;;;;10.16;89.19;98692.56;5038161;28;20060;-51
2022/04/07 04:02:38;;;;;;;9.73;3.00;;;;;;;10.27;90.01;98671.28;5051239;28;20056;-52
2022/04/07 04:05:06;;;;;;;9.98;3.08;;;;;;;10.26;88.86;98672.41;5051772;28;20131;-48
2022/04/07 04:07:34;;;;;;;12.27;2.88;;;;;;;10.25;89.29;98666.16;5052907;28;20048;-48
2022/04/07 04:10:02;;;;;;;7.50;2.75;;;;;;;10.34;90.81;98649.84;5045252;28;20048;-51
2022/04/07 04:12:30;;;;;;;10.25;2.88;;;;;;;10.36;88.85;98640.25;5039301;28;20052;-46
2022/04/07 04:14:57;;;;;;;12.60;3.05;;;;;;;10.24;89.30;98640.06;5038789;28;20132;-49
2022/04/07 04:17:27;;;;;;;9.43;3.08;;;;;;;10.31;90.04;98618.63;5039767;28;20076;-51
2022/04/07 04:19:55;;;;;;;10.00;2.55;;;;;;;10.30;89.81;98595.28;5041138;28;20071;-49
2022/04/07 04:22:23;;;;;;;5.78;2.20;;;;;;;10.32;89.07;98587.59;5039764;28;20038;-49
2022/04/07 04:24:51;;;;;;;8.68;2.90;;;;;;;10.30;89.72;98569.97;5035096;28;20056;-49
2022/04/07 04:27:18;;;;;;;6.75;2.28;;;;;;;10.30;88.71;98553.66;5059337;28;20052;-46
2022/04/07 04:29:46;;;;;;;8.15;2.92;;;;;;;10.19;88.71;98559.38;5053010;28;20029;-48
2022/04/07 04:32:13;;;;;;;5.47;1.92;;;;;;;10.20;88.97;98561.00;5039490;28;20045;-49
2022/04/07 04:34:41;;;;;;;9.52;2.83;;;;;;;10.44;88.60;98559.72;5039621;28;20049;-49
2022/04/07 04:37:09;;;;;;;10.13;2.78;;;;;;;10.29;87.86;98554.75;5039314;28;20045;-48
2022/04/07 04:39:37;;;;;;;6.97;2.50;;;;;;;10.27;89.89;98544.19;5039331;28;20119;-48
2022/04/07 04:42:05;;;;;;;7.90;2.40;;;;;;;10.26;87.46;98537.13;5038195;28;20480;-48
2022/04/07 04:44:33;;;;;;;6.25;2.20;;;;;;;10.24;88.32;98534.72;5039301;28;20045;-49
2022/04/07 04:47:01;;;;;;;9.68;2.67;;;;;;;10.24;87.58;98526.53;5039476;28;20429;-50
2022/04/07 04:49:28;;;;;;;7.78;2.30;;;;;;;10.34;87.07;98521.91;5047644;28;20053;-48
2022/04/07 04:51:56;;;;;;;5.10;1.90;;;;;;;10.49;88.10;98535.03;5059428;28;20119;-48
2022/04/07 04:54:24;;;;;;;5.13;1.70;;;;;;;10.39;89.40;98514.41;5059243;28;20059;-47
2022/04/07 04:56:51;;;;;;;6.22;2.45;;;;;;;10.41;88.21;98508.63;5050840;28;20042;-47
2022/04/07 04:59:19;;;;;;;3.78;1.58;;;;;;;10.35;88.86;98501.75;5045542;28;20044;-49
2022/04/07 05:01:46;;;;;;;4.57;1.90;;;;;;;10.33;88.70;98501.28;5059389;28;20048;-49
2022/04/07 05:04:15;;;;;;;5.03;1.90;;;;;;;10.29;89.40;98492.16;5059439;28;20055;-50
2022/04/07 05:06:42;;;;;;;4.57;1.88;;;;;;;10.37;90.26;98467.66;5058052;28;20045;-49
2022/04/07 05:09:10;;;;;;;4.82;2.10;;;;;;;10.31;90.11;98458.03;5056165;28;20033;-51
2022/04/07 05:11:37;;;;;;;4.50;1.77;;;;;;;10.36;90.27;98455.16;5059395;28;20045;-48
2022/04/07 05:14:05;;;;;;;4.50;1.73;;;;;;;10.40;90.47;98441.69;5057783;28;20052;-47
2022/04/07 05:16:33;;;;;;;6.45;1.98;;;;;;;10.52;90.04;98446.47;5051583;28;20492;-48
2022/04/07 05:19:01;;;;;;;4.97;1.73;;;;;;;10.49;90.45;98447.13;5040737;28;20495;-47
2022/04/07 05:21:28;;;;;;;2.55;1.65;;;;;;;10.44;91.04;98450.81;5041822;28;20427;-49
2022/04/07 05:23:56;;;;;;;4.18;1.60;;;;;;;10.39;90.61;98449.06;5055887;28;20045;-48
2022/04/07 05:26:24;;;;;;;3.67;1.75;;;;;;;10.44;90.76;98434.50;5054328;28;20103;-51
2022/04/07 05:28:51;;;;;;;5.43;1.75;;;;;;;10.68;89.97;98412.13;5053494;28;20121;-51
2022/04/07 05:31:19;;;;;;;4.13;1.70;;;;;;;10.89;89.04;98428.50;5054509;28;20045;-49
2022/04/07 05:33:47;;;;;;;2.45;1.65;;;;;;;11.62;85.33;98421.94;5056189;28;20072;-48
2022/04/07 05:36:14;;;;;;;5.13;1.75;;;;;;;11.34;85.65;98406.09;5053737;28;20029;-49
2022/04/07 05:38:42;;;;;;;5.70;2.05;;;;;;;11.11;87.23;98410.25;5055704;28;20041;-48
2022/04/07 05:41:09;;;;;;;1.88;0.82;;;;;;;11.11;88.18;98393.91;5055630;28;20052;-49
2022/04/07 05:43:37;;;;;;;4.85;2.08;;;;;;;11.43;85.71;98401.38;5047074;28;20049;-49
2022/04/07 05:46:05;;;;;;;13.77;2.20;;;;;;;11.29;86.70;98392.66;5036475;28;20033;-48
2022/04/07 05:48:32;;;;;;;9.20;1.88;;;;;;;11.51;85.15;98388.81;5035222;28;20504;-51
2022/04/07 05:51:00;;;;;;;4.72;1.63;;;;;;;11.76;84.87;98377.97;4350364;28;10000533;-50
2022/04/07 05:53:28;;;;;;;7.10;1.95;;;;;;;11.93;83.57;98367.75;5050134;28;20910;-48
2022/04/07 05:55:58;;;;;;;3.83;1.60;;;;;;;11.49;85.92;98367.31;5044682;28;20045;-50
2022/04/07 05:58:26;;;;;;;4.45;1.80;;;;;;;11.33;86.48;98371.81;5032025;28;20042;-48
2022/04/07 06:00:54;;;;;;;3.47;1.70;;;;;;;11.09;88.88;98361.56;5031089;28;20041;-51
2022/04/07 06:03:21;;;;;;;6.25;2.03;;;;;;;11.65;86.71;98332.03;5031836;28;20041;-49
2022/04/07 06:05:52;;;;;;;3.22;1.52;;;;;;;11.77;85.13;98331.28;5033169;28;20046;-53
2022/04/07 06:08:20;;;;;;;5.30;1.80;;;;;;;11.78;85.43;98330.13;5031028;28;20119;-50
2022/04/07 06:10:49;;;;;;;2.08;1.35;;;;;;;12.14;83.45;98320.44;5032546;28;20057;-48
2022/04/07 06:13:17;;;;;;;4.90;1.98;;;;;;;12.30;81.72;98321.38;5049705;28;20717;-52
2022/04/07 06:15:44;;;;;;;3.70;1.48;;;;;;;11.84;84.49;98317.88;5044459;28;20484;-49
2022/04/07 06:18:13;;;;;;;5.70;1.83;;;;;;;11.82;83.99;98300.25;5049555;28;20049;-51
2022/04/07 06:20:41;;;;;;;4.38;1.52;;;;;;;12.02;83.85;98304.84;5047779;28;20052;-46
2022/04/07 06:23:09;;;;;;;6.72;1.83;;;;;;;12.14;83.17;98293.94;5041405;28;20053;-48
2022/04/07 06:25:37;;;;;;;2.67;1.33;;;;;;;11.70;85.80;98282.72;5043000;28;20492;-48
2022/04/07 06:28:05;;;;;;;2.25;1.08;;;;;;;11.67;86.02;98271.72;5052888;28;20488;-47
2022/04/07 06:30:33;;;;;;;3.88;1.92;;;;;;;12.19;83.29;98282.00;5045039;28;20049;-51
2022/04/07 06:33:00;;;;;;;4.05;1.15;;;;;;;11.89;84.38;98284.16;5035834;28;20416;-48
2022/04/07 06:35:28;;;;;;;1.83;1.08;;;;;;;12.18;83.81;98280.44;5045652;28;20411;-50
2022/04/07 06:37:56;;;;;;;5.00;2.03;;;;;;;11.56;86.06;98262.34;5041085;28;20052;-48
2022/04/07 06:40:26;;;;;;;3.25;1.90;;;;;;;11.45;87.31;98253.81;5043101;28;20045;-44
2022/04/07 06:42:56;;;;;;;3.63;1.45;;;;;;;11.22;88.68;98265.09;5038288;28;20068;-49
2022/04/07 06:45:26;;;;;;;7.78;2.70;;;;;;;11.01;89.85;98251.47;5044348;28;20048;-49
2022/04/07 06:47:54;;;;;;;5.60;2.00;;;;;;;10.61;92.53;98238.38;5033463;28;20496;-47
2022/04/07 06:50:23;;;;;;;5.10;1.98;;;;;;;10.39;93.97;98225.88;5034379;28;20037;-48
2022/04/07 06:52:52;;;;;;;7.05;2.10;;;;;;;10.33;94.74;98215.50;5034203;28;20034;-49
2022/04/07 06:55:20;;;;;;;5.75;1.77;;;;;;;10.21;95.79;98206.09;5046823;28;20049;-52
2022/04/07 06:58:08;;;;;;;5.35;2.00;;;;;;;10.42;94.57;98202.63;5053946;28;20037;-45
2022/04/07 07:00:43;;;;;;;2.97;1.38;;;;;;;11.17;90.11;98199.09;5053051;28;20045;-45
2022/04/07 07:03:13;;;;;;;5.00;2.15;;;;;;;11.67;87.42;98189.88;5053947;28;20051;-49
2022/04/07 07:05:42;;;;;;;8.60;1.60;;;;;;;11.49;88.10;98184.63;5050511;28;20104;-48
2022/04/07 07:08:22;;;;;;;3.45;1.33;;;;;;;11.57;88.51;98166.59;5035668;28;20051;-49
2022/04/07 07:10:51;;;;;;;3.53;1.48;;;;;;;12.12;84.77;98157.03;5051066;28;20049;-46
2022/04/07 07:13:20;;;;;;;4.50;1.67;;;;;;;12.12;84.59;98156.22;5053466;28;20041;-49
2022/04/07 07:15:52;;;;;;;6.55;2.53;;;;;;;11.88;85.71;98155.13;5018114;28;20103;-49
2022/04/07 07:18:20;;;;;;;5.00;1.92;;;;;;;12.18;85.04;98148.59;5035612;28;20119;-48
2022/04/07 07:20:48;;;;;;;22.27;5.40;;;;;;;12.07;84.71;98143.59;5053333;28;20036;-47
2022/04/07 07:23:16;;;;;;;35.40;9.40;;;;;;;11.81;85.99;98141.25;5052038;28;20053;-47
2022/04/07 07:25:44;;;;;;;45.17;12.65;;;;;;;11.83;86.03;98121.78;5051695;28;20071;-48
2022/04/07 07:28:12;;;;;;;35.28;8.40;;;;;;;11.91;86.27;98118.19;5053349;28;20068;-48
2022/04/07 07:30:40;;;;;;;31.70;9.50;;;;;;;12.27;83.98;98114.56;5051811;28;20484;-48
2022/04/07 07:33:08;;;;;;;17.73;5.00;;;;;;;11.59;86.43;98125.31;5034809;28;20042;-47
2022/04/07 07:35:35;;;;;;;5.28;2.30;;;;;;;10.64;93.93;98180.50;5033528;28;20088;-47
2022/04/07 07:38:04;;;;;;;4.63;1.92;;;;;;;9.81;93.58;98211.91;5033219;28;20411;-47
2022/04/07 07:40:32;;;;;;;4.50;1.80;;;;;;;9.08;90.61;98224.75;5033219;28;20052;-46
2022/04/07 07:43:01;;;;;;;5.38;2.00;;;;;;;8.58;92.39;98188.06;5033185;28;20129;-49
2022/04/07 07:45:34;;;;;;;5.43;1.85;;;;;;;8.35;93.28;98208.31;5048446;28;20108;-49
2022/04/07 07:48:27;;;;;;;3.40;1.55;;;;;;;8.35;95.09;98179.25;5052514;28;20507;-49
2022/04/07 07:50:58;;;;;;;5.95;1.70;;;;;;;8.32;94.38;98185.31;5051043;28;20442;-52
2022/04/07 07:53:26;;;;;;;7.35;1.60;;;;;;;8.30;94.71;98199.19;5053115;28;20045;-45
2022/04/07 07:55:55;;;;;;;6.13;2.03;;;;;;;8.21;93.61;98249.13;5049030;28;20090;-47
2022/04/07 07:58:24;;;;;;;4.38;1.92;;;;;;;8.02;94.95;98266.44;5033292;28;20385;-46
2022/04/07 08:00:52;;;;;;;4.75;2.00;;;;;;;7.91;96.43;98270.53;5033118;28;20500;-47
2022/04/07 08:03:20;;;;;;;6.85;2.28;;;;;;;7.87;97.19;98272.31;5031981;28;20038;-45
2022/04/07 08:05:48;;;;;;;7.88;2.22;;;;;;;7.90;97.71;98260.84;5032937;28;20037;-44
2022/04/07 08:08:16;;;;;;;4.10;1.90;;;;;;;7.96;97.40;98254.16;5048353;28;20040;-46
2022/04/07 08:10:45;;;;;;;5.25;2.13;;;;;;;7.98;97.25;98240.28;5052917;28;20045;-45
2022/04/07 08:13:13;;;;;;;4.53;2.00;;;;;;;7.90;96.88;98220.16;5052861;28;20041;-46
2022/04/07 08:15:41;;;;;;;5.95;2.08;;;;;;;7.94;98.26;98229.28;5053061;28;20503;-46
2022/04/07 08:18:09;;;;;;;3.90;1.95;;;;;;;8.05;98.02;98222.44;5050793;28;20047;-45
2022/04/07 08:20:36;;;;;;;5.07;2.10;;;;;;;8.13;96.79;98222.75;5052465;28;20044;-49
2022/04/07 08:23:04;;;;;;;5.25;2.17;;;;;;;8.20;97.95;98209.53;5052720;28;20051;-49
2022/04/07 08:25:32;;;;;;;5.55;2.10;;;;;;;8.28;97.02;98211.47;5052720;28;20069;-51
2022/04/07 08:27:59;;;;;;;7.32;2.40;;;;;;;8.37;97.00;98211.47;5034904;28;20037;-48
2022/04/07 08:30:27;;;;;;;4.70;1.88;;;;;;;8.39;97.04;98211.97;5033252;28;20037;-48
2022/04/07 08:32:55;;;;;;;4.05;1.88;;;;;;;8.43;96.99;98218.38;5033426;28;20045;-49
2022/04/07 08:35:22;;;;;;;7.28;2.35;;;;;;;8.51;96.58;98221.13;5032910;28;20472;-48
2022/04/07 08:37:50;;;;;;;9.25;2.80;;;;;;;8.66;97.04;98197.31;5034033;28;20415;-46
2022/04/07 08:40:20;;;;;;;12.57;4.18;;;;;;;8.79;97.52;98193.66;5033198;28;20048;-47
2022/04/07 08:42:48;;;;;;;7.50;2.85;;;;;;;8.84;97.10;98200.81;5033267;28;20042;-51
2022/04/07 08:45:16;;;;;;;7.88;3.30;;;;;;;8.86;96.83;98215.69;5033021;28;20049;-50
2022/04/07 08:47:48;;;;;;;8.10;2.70;;;;;;;8.91;96.83;98195.72;5049609;28;20116;-50
2022/04/07 08:50:17;;;;;;;8.05;2.60;;;;;;;8.91;96.62;98212.78;5052730;28;20049;-51
2022/04/07 08:52:45;;;;;;;6.80;2.60;;;;;;;8.89;97.44;98204.16;5051392;28;20048;-49
2022/04/07 08:55:14;;;;;;;9.90;3.10;;;;;;;8.93;97.85;98199.69;5052151;28;20491;-49
2022/04/07 08:57:42;;;;;;;6.97;2.25;;;;;;;8.93;97.44;98199.69;5051107;28;20045;-49
2022/04/07 09:00:11;;;;;;;4.63;2.08;;;;;;;8.91;98.17;98204.66;5055144;28;20061;-49
2022/04/07 09:02:40;;;;;;;6.05;2.00;;;;;;;8.90;98.55;98184.06;5056184;28;20509;-49
2022/04/07 09:05:11;;;;;;;8.18;2.72;;;;;;;9.02;98.95;98199.69;5056254;28;20045;-49
2022/04/07 09:07:39;;;;;;;6.15;2.25;;;;;;;9.08;98.83;98211.19;5037013;28;20377;-49
2022/04/07 09:10:08;;;;;;;6.97;2.15;;;;;;;9.05;99.88;98212.63;5035861;28;20496;-49
2022/04/07 09:12:38;;;;;;;4.75;2.25;;;;;;;9.07;100.00;98209.59;5036023;28;20053;-49
2022/04/07 09:15:07;;;;;;;6.80;2.38;;;;;;;9.01;99.71;98205.44;5035116;28;20140;-50
2022/04/07 09:17:52;;;;;;;4.60;2.20;;;;;;;9.05;100.00;98201.75;5037293;28;20046;-45
2022/04/07 09:20:20;;;;;;;7.63;2.15;;;;;;;9.14;100.00;98202.53;5036239;28;20377;-48
2022/04/07 09:23:05;;;;;;;5.47;2.08;;;;;;;9.15;100.00;98206.84;5035814;28;20041;-45
2022/04/07 09:25:33;;;;;;;7.70;2.67;;;;;;;9.30;100.00;98196.59;5039806;28;20053;-49
2022/04/07 09:28:00;;;;;;;7.43;2.85;;;;;;;9.33;100.00;98207.63;5055914;28;20400;-52
2022/04/07 09:30:37;;;;;;;7.07;2.65;;;;;;;9.44;100.00;98207.25;5055657;28;20087;-46
2022/04/07 09:33:05;;;;;;;7.00;2.40;;;;;;;9.47;100.00;98228.34;5055868;28;20403;-49
2022/04/07 09:35:32;;;;;;;6.25;2.22;;;;;;;9.54;100.00;98212.34;5054214;28;20131;-49
2022/04/07 09:38:04;;;;;;;7.70;2.33;;;;;;;9.60;100.00;98222.72;5054200;28;20045;-47
2022/04/07 09:40:32;;;;;;;5.10;2.20;;;;;;;9.70;99.73;98216.13;5055665;28;20503;-48
2022/04/07 09:42:59;;;;;;;6.15;2.55;;;;;;;9.73;97.47;98215.47;5055398;28;20093;-44
2022/04/07 09:45:27;;;;;;;6.55;2.13;;;;;;;9.76;97.41;98203.13;5050086;28;20494;-45
2022/04/07 09:47:55;;;;;;;8.60;2.42;;;;;;;9.81;96.56;98216.53;5035765;28;20480;-45
2022/04/07 09:50:24;;;;;;;8.93;2.40;;;;;;;9.87;95.66;98222.63;5034204;28;20068;-47
2022/04/07 09:53:03;;;;;;;7.90;2.53;;;;;;;9.88;92.68;98207.88;5034391;28;20041;-50
2022/04/07 09:55:36;;;;;;;8.85;2.40;;;;;;;9.98;89.45;98210.22;5036415;28;20463;-48
2022/04/07 09:58:07;;;;;;;8.10;2.45;;;;;;;9.94;85.54;98191.06;5033804;28;20069;-51
2022/04/07 10:00:36;;;;;;;8.15;2.58;;;;;;;9.98;83.82;98204.78;5035150;28;20049;-45
2022/04/07 10:03:04;;;;;;;9.55;2.75;;;;;;;10.03;80.72;98199.97;5017430;28;20538;-49
2022/04/07 10:05:32;;;;;;;4.30;1.90;;;;;;;10.08;81.33;98204.41;5042484;28;20514;-50
2022/04/07 10:08:01;;;;;;;7.22;2.58;;;;;;;10.13;81.38;98225.19;5053567;28;20069;-49
2022/04/07 10:10:29;;;;;;;8.63;2.35;;;;;;;10.14;81.38;98196.84;5054008;28;20056;-49
2022/04/07 10:13:00;;;;;;;10.45;2.85;;;;;;;10.17;80.31;98217.97;5054850;28;20132;-48
2022/04/07 10:15:29;;;;;;;8.90;2.40;;;;;;;10.21;79.29;98210.75;5053194;28;20098;-49
2022/04/07 10:18:01;;;;;;;10.13;2.90;;;;;;;10.27;79.38;98211.34;5053720;28;20061;-48
2022/04/07 10:20:36;;;;;;;9.82;2.70;;;;;;;10.25;77.26;98208.97;5037154;28;20042;-50
2022/04/07 10:23:28;;;;;;;9.40;2.67;;;;;;;10.29;75.33;98233.59;5047830;28;20077;-48
2022/04/07 10:25:57;;;;;;;17.38;3.50;;;;;;;10.30;71.68;98246.91;5041692;28;20663;-50
2022/04/07 10:28:25;;;;;;;8.90;2.55;;;;;;;10.30;72.79;98229.78;5034747;28;20072;-50
2022/04/07 10:30:54;;;;;;;10.52;2.65;;;;;;;10.36;73.32;98231.94;5039962;28;20049;-47
2022/04/07 10:33:41;;;;;;;10.02;2.78;;;;;;;10.43;72.52;98239.59;5034609;28;20447;-49
2022/04/07 10:36:18;;;;;;;10.88;2.80;;;;;;;10.45;72.64;98254.47;5045594;28;20510;-50
2022/04/07 10:38:47;;;;;;;12.23;3.42;;;;;;;10.59;72.61;98246.06;5052154;28;20029;-50
2022/04/07 10:41:37;;;;;;;13.85;3.70;;;;;;;10.62;71.41;98242.66;5033795;28;20045;-49
2022/04/07 10:44:08;;;;;;;9.80;3.17;;;;;;;10.66;71.26;98261.88;5034653;28;20571;-52
2022/04/07 10:46:36;;;;;;;12.70;3.78;;;;;;;10.73;68.71;98256.69;5034410;28;20041;-50
2022/04/07 10:49:11;;;;;;;10.77;2.90;;;;;;;10.63;69.03;98265.25;5034204;28;20388;-49
2022/04/07 10:51:53;;;;;;;12.98;3.38;;;;;;;10.65;71.73;98282.06;5016561;28;20132;-45
2022/04/07 10:54:21;;;;;;;16.00;3.75;;;;;;;10.65;67.92;98271.97;4339689;28;10000174;-50
2022/04/07 10:56:55;;;;;;;11.98;3.50;;;;;;;10.53;67.44;98295.59;5032190;28;20460;-48
2022/04/07 10:59:27;;;;;;;12.52;3.33;;;;;;;10.38;68.33;98299.69;5029501;28;20084;-50
2022/04/07 11:02:03;;;;;;;9.55;3.33;;;;;;;10.27;68.64;98299.25;5031879;28;20508;-48
2022/04/07 11:04:35;;;;;;;10.55;3.38;;;;;;;10.21;68.70;98311.41;5013315;28;20076;-47
2022/04/07 11:07:09;;;;;;;9.68;3.60;;;;;;;10.18;70.68;98317.53;5031666;28;20500;-49
2022/04/07 11:09:57;;;;;;;9.38;3.15;;;;;;;10.24;70.02;98317.00;5029710;28;20045;-53
2022/04/07 11:12:37;;;;;;;14.38;3.42;;;;;;;10.20;68.63;98321.50;5034013;28;20136;-50
2022/04/07 11:15:05;;;;;;;13.23;3.72;;;;;;;10.20;68.48;98331.59;5030364;28;20057;-48
2022/04/07 11:17:37;;;;;;;12.43;3.63;;;;;;;10.16;70.03;98312.41;5031694;28;20037;-49
2022/04/07 11:20:16;;;;;;;16.00;4.15;;;;;;;10.18;68.91;98329.19;5028645;28;20048;-51
2022/04/07 11:22:47;;;;;;;18.45;4.30;;;;;;;10.04;68.91;98336.78;5029440;28;20041;-49
2022/04/07 11:25:34;;;;;;;13.00;3.30;;;;;;;9.97;69.39;98336.47;5012852;28;20151;-47
2022/04/07 11:28:22;;;;;;;17.58;4.07;;;;;;;9.98;69.37;98352.50;5031360;28;20443;-50
2022/04/07 11:31:03;;;;;;;12.60;4.15;;;;;;;9.98;70.03;98340.78;5037249;28;20408;-50
2022/04/07 11:33:37;;;;;;;14.20;4.60;;;;;;;10.05;69.22;98340.28;5048908;28;20052;-49
2022/04/07 11:36:05;;;;;;;15.55;3.78;;;;;;;10.08;69.39;98345.91;5032223;28;20118;-47
2022/04/07 11:38:44;;;;;;;14.38;3.45;;;;;;;9.94;68.49;98372.50;5048379;28;20045;-50
2022/04/07 11:41:13;;;;;;;16.40;4.20;;;;;;;9.85;69.00;98371.72;5028426;28;20103;-49
2022/04/07 11:43:46;;;;;;;13.75;3.75;;;;;;;9.79;71.63;98392.84;5033930;28;20044;-51
2022/04/07 11:46:33;;;;;;;14.18;4.13;;;;;;;9.54;71.03;98389.03;5032328;28;20583;-51